Time;durP1;ratioP1;P1;durP2;ratioP2;P2;SDS_P1;SDS_P2;PMS_P1;PMS_P2;Temp;Humidity;BMP_temperature;BMP_pressure;BME280_temperature;BME280_humidity;BME280_pressure;Samples;Min_cycle;Max_cycle;Signal;HPM_P1;HPM_P2
2022/09/15 00:01:20;;;;;;;10.75;7.32;;;16.10;99.90;;;;;;4064157;28;20056;-70
2022/09/15 00:03:22;;;;;;;9.23;7.38;;;16.10;99.90;;;;;;4062351;29;20041;-70
2022/09/15 00:05:22;;;;;;;8.80;6.85;;;16.10;99.90;;;;;;4064824;28;20566;-70
2022/09/15 00:07:23;;;;;;;9.98;7.03;;;16.10;99.90;;;;;;4071357;28;20050;-69
2022/09/15 00:09:23;;;;;;;6.80;5.97;;;16.10;99.90;;;;;;4065977;28;20036;-69
2022/09/15 00:11:27;;;;;;;8.65;5.82;;;16.10;99.90;;;;;;4059037;28;20036;-69
2022/09/15 00:13:28;;;;;;;6.80;5.85;;;16.10;99.90;;;;;;4064883;28;20055;-70
2022/09/15 00:15:28;;;;;;;9.23;5.88;;;16.10;99.90;;;;;;4062774;28;20480;-70
2022/09/15 00:17:30;;;;;;;7.13;5.95;;;16.10;99.90;;;;;;4064694;28;20044;-70
2022/09/15 00:19:30;;;;;;;6.63;5.85;;;16.10;99.90;;;;;;4066475;28;20036;-70
2022/09/15 00:21:33;;;;;;;7.80;5.68;;;16.20;99.90;;;;;;4069314;28;20102;-70
2022/09/15 00:23:34;;;;;;;;;;;16.20;99.90;;;;;;4065461;28;20052;-70
2022/09/15 00:25:47;;;;;;;9.82;6.35;;;16.20;99.90;;;;;;4072076;28;20039;-70
2022/09/15 00:27:48;;;;;;;7.93;6.07;;;16.20;99.90;;;;;;4071212;28;20040;-70
2022/09/15 00:29:49;;;;;;;9.05;6.00;;;16.20;99.90;;;;;;4062613;28;20036;-69
2022/09/15 00:31:49;;;;;;;10.25;5.78;;;16.20;99.90;;;;;;4065719;28;20028;-69
2022/09/15 00:33:52;;;;;;;8.18;5.72;;;16.20;99.90;;;;;;4063384;29;20063;-69
2022/09/15 00:35:52;;;;;;;;;;;16.20;99.90;;;;;;4068187;28;20043;-69
2022/09/15 00:37:53;;;;;;;7.65;5.07;;;16.20;99.90;;;;;;4068223;28;20356;-70
2022/09/15 00:39:53;;;;;;;6.53;4.85;;;16.20;99.90;;;;;;4065793;28;20039;-70
2022/09/15 00:41:54;;;;;;;8.10;5.40;;;16.10;99.90;;;;;;4063448;28;20123;-70
2022/09/15 00:43:57;;;;;;;6.32;5.05;;;16.10;99.90;;;;;;4062502;28;20032;-70
2022/09/15 00:45:58;;;;;;;7.35;5.45;;;16.10;99.90;;;;;;4065470;28;20044;-70
2022/09/15 00:47:59;;;;;;;6.47;5.00;;;16.10;99.90;;;;;;4068979;28;20499;-70
2022/09/15 00:50:13;;;;;;;5.50;4.35;;;16.10;99.90;;;;;;4067976;28;20107;-70
2022/09/15 00:52:24;;;;;;;7.95;4.70;;;16.10;99.90;;;;;;4068143;28;20403;-69
2022/09/15 00:54:43;;;;;;;5.45;4.72;;;16.10;99.90;;;;;;4066904;28;20753;-69
2022/09/15 00:56:46;;;;;;;7.53;5.25;;;16.10;99.90;;;;;;4060840;28;20047;-70
2022/09/15 00:58:55;;;;;;;7.43;5.03;;;16.00;99.90;;;;;;4066280;28;20042;-70
2022/09/15 01:00:59;;;;;;;6.80;4.97;;;16.00;99.90;;;;;;4061484;29;20403;-70
2022/09/15 01:03:01;;;;;;;7.53;5.38;;;16.00;99.90;;;;;;4064426;28;20087;-70
2022/09/15 01:05:06;;;;;;;6.63;4.70;;;16.00;99.90;;;;;;4064660;28;20115;-69
2022/09/15 01:07:17;;;;;;;6.75;5.15;;;16.00;99.90;;;;;;4068796;28;20062;-69
2022/09/15 01:09:33;;;;;;;6.45;5.20;;;16.00;99.90;;;;;;4067839;28;20040;-69
2022/09/15 01:11:34;;;;;;;6.57;4.60;;;16.00;99.90;;;;;;4059664;28;20071;-70
2022/09/15 01:13:35;;;;;;;6.78;5.03;;;16.00;99.90;;;;;;4070827;28;20048;-69
2022/09/15 01:16:01;;;;;;;6.47;4.70;;;16.00;99.90;;;;;;4074669;28;21003;-70
2022/09/15 01:18:17;;;;;;;6.28;5.10;;;15.90;99.90;;;;;;4073160;28;20048;-70
2022/09/15 01:20:42;;;;;;;5.03;4.40;;;15.90;99.90;;;;;;4065879;28;20040;-70
2022/09/15 01:23:11;;;;;;;7.15;4.70;;;15.90;99.90;;;;;;4071320;28;20083;-69
2022/09/15 01:25:54;;;;;;;4.75;4.00;;;15.90;99.90;;;;;;4071793;28;20403;-70
2022/09/15 01:28:37;;;;;;;6.88;5.10;;;15.90;99.90;;;;;;4069099;28;20188;-70
2022/09/15 01:30:49;;;;;;;6.30;4.45;;;15.90;99.90;;;;;;4072209;28;20040;-69
2022/09/15 01:33:09;;;;;;;5.55;4.85;;;15.80;99.90;;;;;;4075245;28;20127;-69
2022/09/15 01:35:16;;;;;;;8.68;5.05;;;15.80;99.90;;;;;;4070273;28;20043;-70
2022/09/15 01:37:27;;;;;;;6.75;5.47;;;15.80;99.90;;;;;;4079410;28;20095;-70
2022/09/15 01:39:33;;;;;;;5.90;4.90;;;15.70;99.90;;;;;;4069260;28;20091;-70
2022/09/15 01:41:49;;;;;;;7.63;5.78;;;15.80;99.90;;;;;;4072489;28;20131;-69
2022/09/15 01:43:53;;;;;;;6.88;5.47;;;15.70;99.90;;;;;;4068738;28;20063;-69
2022/09/15 01:45:53;;;;;;;9.00;5.93;;;15.70;99.90;;;;;;4067966;28;20048;-69
2022/09/15 01:47:57;;;;;;;7.57;4.78;;;15.70;99.90;;;;;;4072265;28;20059;-69
2022/09/15 01:50:04;;;;;;;6.30;4.80;;;15.70;99.90;;;;;;4070203;28;20038;-70
2022/09/15 01:52:05;;;;;;;6.35;4.88;;;15.60;99.90;;;;;;4075687;28;20134;-70
2022/09/15 01:54:07;;;;;;;5.55;4.22;;;15.60;99.90;;;;;;4071834;28;20102;-70
2022/09/15 01:56:10;;;;;;;6.17;3.90;;;15.60;99.90;;;;;;4071160;28;20054;-70
2022/09/15 01:58:11;;;;;;;5.93;4.65;;;15.60;99.90;;;;;;4074517;28;20278;-70
2022/09/15 02:00:12;;;;;;;7.95;5.07;;;15.60;99.90;;;;;;4065535;28;20064;-70
2022/09/15 02:02:28;;;;;;;6.20;4.55;;;15.60;99.90;;;;;;4060332;28;20040;-70
2022/09/15 02:04:50;;;;;;;7.47;4.32;;;15.60;99.90;;;;;;4068081;28;20032;-70
2022/09/15 02:07:01;;;;;;;8.15;5.53;;;15.50;99.90;;;;;;4063836;28;20387;-70
2022/09/15 02:09:26;;;;;;;5.30;4.80;;;15.60;99.90;;;;;;4060548;29;20459;-70
2022/09/15 02:11:27;;;;;;;7.60;4.35;;;15.50;99.90;;;;;;4063370;28;20044;-70
2022/09/15 02:13:53;;;;;;;7.07;5.05;;;15.50;99.90;;;;;;4066147;29;20050;-70
2022/09/15 02:15:58;;;;;;;7.88;5.38;;;15.50;99.90;;;;;;4063618;28;20056;-70
2022/09/15 02:18:04;;;;;;;7.43;5.57;;;15.60;99.90;;;;;;4065619;28;20071;-70
2022/09/15 02:20:30;;;;;;;12.75;5.88;;;15.60;99.90;;;;;;4065754;28;20107;-69
2022/09/15 02:22:36;;;;;;;9.82;6.78;;;15.60;99.90;;;;;;4070283;28;20056;-69
2022/09/15 02:24:43;;;;;;;8.20;6.43;;;15.50;99.90;;;;;;4060338;28;20083;-70
2022/09/15 02:26:47;;;;;;;8.60;6.38;;;15.50;99.90;;;;;;4072020;28;20717;-70
2022/09/15 02:28:49;;;;;;;10.52;6.75;;;15.50;99.90;;;;;;4066595;29;20063;-71
2022/09/15 02:30:53;;;;;;;9.70;6.82;;;15.50;99.90;;;;;;4068917;28;20408;-70
2022/09/15 02:33:07;;;;;;;9.25;6.38;;;15.50;99.90;;;;;;4070727;28;20039;-70
2022/09/15 02:35:09;;;;;;;9.20;6.57;;;15.50;99.90;;;;;;4069011;29;20051;-70
2022/09/15 02:37:11;;;;;;;7.95;6.35;;;15.50;99.90;;;;;;4073057;28;20052;-70
2022/09/15 02:39:15;;;;;;;11.23;7.50;;;15.50;99.90;;;;;;4067338;29;20365;-70
2022/09/15 02:41:16;;;;;;;8.18;6.10;;;15.50;99.90;;;;;;4065839;29;20048;-69
2022/09/15 02:43:18;;;;;;;7.80;6.15;;;15.50;99.90;;;;;;4069458;28;20039;-69
2022/09/15 02:45:19;;;;;;;6.90;5.30;;;15.50;99.90;;;;;;4065533;28;20056;-69
2022/09/15 02:47:19;;;;;;;9.43;6.18;;;15.60;99.90;;;;;;4071579;29;20184;-69
2022/09/15 02:49:20;;;;;;;8.85;6.07;;;15.50;99.90;;;;;;4070476;28;20048;-70
2022/09/15 02:51:21;;;;;;;8.18;6.15;;;15.60;99.90;;;;;;4067508;28;20078;-70
2022/09/15 02:53:21;;;;;;;7.97;5.60;;;15.70;99.90;;;;;;4073247;28;20055;-69
2022/09/15 02:55:26;;;;;;;10.15;6.97;;;15.60;99.90;;;;;;4069458;28;20047;-69
2022/09/15 02:57:26;;;;;;;10.95;7.70;;;15.70;99.90;;;;;;4067911;28;20534;-70
2022/09/15 03:00:11;;;;;;;11.23;7.40;;;15.70;99.90;;;;;;4070934;28;20048;-70
2022/09/15 03:01:47;;;;;;;11.75;7.57;;;15.70;99.90;;;;;;4073092;28;20036;-69
2022/09/15 03:03:48;;;;;;;12.18;8.18;;;15.70;99.90;;;;;;4072471;28;20400;-69
2022/09/15 03:05:48;;;;;;;9.77;7.30;;;15.70;99.90;;;;;;4073117;28;20040;-70
2022/09/15 03:07:50;;;;;;;16.45;7.85;;;15.70;99.90;;;;;;4069156;28;20059;-69
2022/09/15 03:09:51;;;;;;;9.95;7.40;;;15.80;99.90;;;;;;4069496;28;20066;-71
2022/09/15 03:11:51;;;;;;;9.10;6.18;;;15.80;99.90;;;;;;4067739;29;20044;-69
2022/09/15 03:13:54;;;;;;;20.40;9.63;;;15.80;99.90;;;;;;4069621;28;20032;-70
2022/09/15 03:15:54;;;;;;;;;;;15.80;99.90;;;;;;4065631;28;20028;-70
2022/09/15 03:17:55;;;;;;;10.10;7.72;;;15.70;99.90;;;;;;4069375;28;19942;-69
2022/09/15 03:19:56;;;;;;;14.75;9.88;;;15.70;99.90;;;;;;4073590;28;20035;-70
2022/09/15 03:21:56;;;;;;;13.35;8.45;;;15.60;99.90;;;;;;4065946;28;20395;-70
2022/09/15 03:23:57;;;;;;;11.38;8.57;;;15.60;99.90;;;;;;4072442;28;20435;-70
2022/09/15 03:25:58;;;;;;;11.63;8.15;;;15.60;99.90;;;;;;4070823;28;20188;-70
2022/09/15 03:27:58;;;;;;;11.48;7.57;;;15.60;99.90;;;;;;4069468;28;20133;-70
2022/09/15 03:29:59;;;;;;;11.05;7.95;;;15.60;99.90;;;;;;4071381;28;20471;-70
2022/09/15 03:32:00;;;;;;;9.50;7.53;;;15.70;99.90;;;;;;4067719;28;20445;-70
2022/09/15 03:34:01;;;;;;;12.48;7.95;;;15.70;99.90;;;;;;4069807;28;20040;-70
2022/09/15 03:36:02;;;;;;;15.50;8.50;;;15.70;99.90;;;;;;4071528;28;20032;-70
2022/09/15 03:38:03;;;;;;;9.80;7.40;;;15.70;99.90;;;;;;4069660;28;20395;-70
2022/09/15 03:40:04;;;;;;;12.82;9.10;;;15.70;99.90;;;;;;4075133;28;20403;-69
2022/09/15 03:42:04;;;;;;;13.45;8.23;;;15.70;99.90;;;;;;4065631;28;20047;-70
2022/09/15 03:44:05;;;;;;;11.73;7.45;;;15.70;99.90;;;;;;4065321;28;20096;-71
2022/09/15 03:46:08;;;;;;;9.82;7.53;;;15.80;99.90;;;;;;4050394;29;20052;-71
2022/09/15 03:48:09;;;;;;;9.35;7.30;;;15.80;99.90;;;;;;4065088;28;20040;-71
2022/09/15 03:50:10;;;;;;;10.45;7.57;;;15.80;99.90;;;;;;4067730;28;20028;-70
2022/09/15 03:52:11;;;;;;;9.90;7.28;;;15.80;99.90;;;;;;4063262;29;20424;-70
2022/09/15 03:54:11;;;;;;;14.32;9.32;;;15.90;99.90;;;;;;4067688;28;20032;-70
2022/09/15 03:56:30;;;;;;;10.00;8.65;;;15.80;99.90;;;;;;4062007;28;20071;-70
2022/09/15 03:58:30;;;;;;;12.50;8.25;;;15.80;99.90;;;;;;4071800;28;20543;-70
2022/09/15 04:00:31;;;;;;;13.13;8.73;;;15.80;99.90;;;;;;4067723;28;20064;-70
2022/09/15 04:02:32;;;;;;;12.50;8.40;;;15.80;99.90;;;;;;4064378;28;20047;-71
2022/09/15 04:04:32;;;;;;;11.75;8.35;;;15.80;99.90;;;;;;4061539;28;20123;-70
2022/09/15 04:06:34;;;;;;;10.23;8.15;;;15.90;99.90;;;;;;4060648;28;20064;-70
2022/09/15 04:08:34;;;;;;;11.45;8.27;;;15.90;99.90;;;;;;4062036;29;20099;-70
2022/09/15 04:10:37;;;;;;;13.50;9.32;;;15.90;99.90;;;;;;4065311;28;20463;-70
2022/09/15 04:12:38;;;;;;;18.17;10.23;;;15.80;99.90;;;;;;4065815;29;20051;-70
2022/09/15 04:14:38;;;;;;;14.10;10.38;;;15.80;99.90;;;;;;4073419;28;20040;-70
2022/09/15 04:16:39;;;;;;;12.82;8.80;;;15.90;99.90;;;;;;4070883;28;20067;-70
2022/09/15 04:18:40;;;;;;;12.60;8.80;;;15.80;99.90;;;;;;4067014;28;20040;-70
2022/09/15 04:20:40;;;;;;;13.07;8.85;;;15.90;99.90;;;;;;4068526;28;20111;-71
2022/09/15 04:22:41;;;;;;;17.35;10.27;;;15.80;99.90;;;;;;4068563;28;20044;-70
2022/09/15 04:24:41;;;;;;;13.65;9.23;;;15.90;99.90;;;;;;4067333;28;20047;-71
2022/09/15 04:26:42;;;;;;;10.73;8.18;;;15.90;99.90;;;;;;4063593;28;20475;-69
2022/09/15 04:28:43;;;;;;;14.45;9.10;;;15.90;99.90;;;;;;4064352;28;20040;-70
2022/09/15 04:30:43;;;;;;;11.55;8.90;;;15.90;99.90;;;;;;4070083;28;20046;-69
2022/09/15 04:32:44;;;;;;;12.90;9.35;;;15.90;99.90;;;;;;4063666;28;20051;-70
2022/09/15 04:34:45;;;;;;;15.93;9.10;;;16.00;99.90;;;;;;4064385;29;20040;-70
2022/09/15 04:36:45;;;;;;;11.40;9.05;;;16.00;99.90;;;;;;4072548;28;20051;-70
2022/09/15 04:38:47;;;;;;;13.07;9.40;;;16.00;99.90;;;;;;4070961;28;20059;-69
2022/09/15 04:40:48;;;;;;;11.48;9.05;;;16.00;99.90;;;;;;4060095;28;20050;-70
2022/09/15 04:42:48;;;;;;;12.55;9.15;;;16.10;99.90;;;;;;4076455;28;20051;-70
2022/09/15 04:44:49;;;;;;;16.75;10.73;;;16.10;99.90;;;;;;4072306;28;20043;-69
2022/09/15 04:46:49;;;;;;;15.48;10.32;;;16.00;99.90;;;;;;4071846;28;20463;-70
2022/09/15 04:48:50;;;;;;;14.63;8.93;;;16.10;99.90;;;;;;4074529;28;20490;-69
2022/09/15 04:50:51;;;;;;;11.52;8.60;;;16.00;99.90;;;;;;4066975;28;20451;-71
2022/09/15 04:52:52;;;;;;;12.68;9.25;;;16.00;99.90;;;;;;4067181;28;20059;-70
2022/09/15 04:54:53;;;;;;;13.77;9.63;;;16.00;99.90;;;;;;4066869;28;20391;-69
2022/09/15 04:56:54;;;;;;;15.05;10.43;;;16.00;99.90;;;;;;4067737;28;20385;-69
2022/09/15 04:58:57;;;;;;;11.88;9.13;;;16.00;99.90;;;;;;4076051;28;20184;-69
2022/09/15 05:00:58;;;;;;;13.15;10.00;;;16.00;99.90;;;;;;4071281;28;20051;-70
2022/09/15 05:02:59;;;;;;;13.75;9.20;;;16.00;99.90;;;;;;4072158;28;20028;-75
2022/09/15 05:05:01;;;;;;;16.70;10.30;;;15.90;99.90;;;;;;4063134;29;20040;-74
2022/09/15 05:07:01;;;;;;;14.40;10.15;;;15.90;99.90;;;;;;4059754;28;20040;-74
2022/09/15 05:09:04;;;;;;;14.13;8.88;;;16.00;99.90;;;;;;4060619;28;20075;-74
2022/09/15 05:11:08;;;;;;;13.43;8.75;;;16.00;99.90;;;;;;4059819;29;20047;-73
2022/09/15 05:13:08;;;;;;;13.10;9.77;;;15.90;99.90;;;;;;4056824;28;20051;-74
2022/09/15 05:15:09;;;;;;;16.58;10.23;;;15.90;99.90;;;;;;4059133;29;20049;-75
2022/09/15 05:17:10;;;;;;;13.63;9.63;;;15.90;99.90;;;;;;4060294;29;20049;-75
2022/09/15 05:19:11;;;;;;;13.80;9.10;;;15.90;99.90;;;;;;4063283;29;20131;-73
2022/09/15 05:21:14;;;;;;;11.90;7.97;;;15.90;99.90;;;;;;4059040;28;20040;-74
2022/09/15 05:23:14;;;;;;;13.18;9.05;;;15.90;99.90;;;;;;4057474;28;20131;-73
2022/09/15 05:25:15;;;;;;;14.32;9.50;;;15.90;99.90;;;;;;4057957;28;20064;-74
2022/09/15 05:27:16;;;;;;;10.98;7.88;;;15.90;99.90;;;;;;4058457;29;20036;-74
2022/09/15 05:29:16;;;;;;;10.73;7.40;;;15.90;99.90;;;;;;4053406;29;20040;-73
2022/09/15 05:31:23;;;;;;;10.98;8.23;;;16.00;99.90;;;;;;4058200;28;20492;-72
2022/09/15 05:33:24;;;;;;;14.15;8.90;;;16.00;99.90;;;;;;4060543;29;20048;-72
2022/09/15 05:35:24;;;;;;;13.45;8.15;;;16.00;99.90;;;;;;4061006;29;20056;-73
2022/09/15 05:37:25;;;;;;;10.50;7.65;;;16.00;99.90;;;;;;4061283;28;20036;-75
2022/09/15 05:39:25;;;;;;;15.60;8.52;;;16.00;99.90;;;;;;4056388;29;20037;-74
2022/09/15 05:41:27;;;;;;;11.93;8.02;;;16.00;99.90;;;;;;4058997;29;20135;-74
2022/09/15 05:43:33;;;;;;;10.10;7.53;;;16.00;99.90;;;;;;4061255;28;20043;-73
2022/09/15 05:45:33;;;;;;;9.75;8.10;;;16.10;99.90;;;;;;4057201;29;20602;-74
2022/09/15 05:47:34;;;;;;;10.80;7.88;;;16.10;99.90;;;;;;4059671;29;20047;-74
2022/09/15 05:49:35;;;;;;;8.70;6.97;;;16.10;99.90;;;;;;4059715;29;20048;-74
2022/09/15 05:51:35;;;;;;;8.32;6.82;;;16.10;99.90;;;;;;4058862;28;20095;-74
2022/09/15 05:53:37;;;;;;;9.93;6.68;;;16.10;99.90;;;;;;4058335;28;20040;-73
2022/09/15 05:55:37;;;;;;;10.40;7.22;;;16.10;99.90;;;;;;4057989;29;20119;-73
2022/09/15 05:57:38;;;;;;;8.52;6.70;;;16.10;99.90;;;;;;4058176;29;20715;-74
2022/09/15 05:59:40;;;;;;;9.88;7.10;;;16.10;99.90;;;;;;4061335;28;20044;-73
2022/09/15 06:01:41;;;;;;;8.43;6.00;;;16.10;99.90;;;;;;4059353;29;20052;-73
2022/09/15 06:03:42;;;;;;;9.55;6.82;;;16.20;99.90;;;;;;4060851;29;20044;-72
2022/09/15 06:05:43;;;;;;;8.63;7.40;;;16.20;99.90;;;;;;4057712;29;20045;-74
2022/09/15 06:07:43;;;;;;;9.30;7.25;;;16.20;99.90;;;;;;4058643;29;20048;-74
2022/09/15 06:09:44;;;;;;;9.63;7.45;;;16.20;99.90;;;;;;4060576;29;20059;-74
2022/09/15 06:11:44;;;;;;;9.68;6.78;;;16.20;99.90;;;;;;4058884;28;20131;-73
2022/09/15 06:13:46;;;;;;;9.70;7.25;;;16.30;99.90;;;;;;4058960;28;20253;-74
2022/09/15 06:15:46;;;;;;;8.90;6.80;;;16.30;99.90;;;;;;4060350;29;20076;-74
2022/09/15 06:17:47;;;;;;;10.00;6.40;;;16.30;99.90;;;;;;4057687;29;20040;-73
2022/09/15 06:19:48;;;;;;;8.48;6.60;;;16.30;99.90;;;;;;4056692;28;20555;-73
2022/09/15 06:21:48;;;;;;;9.20;6.90;;;16.30;99.90;;;;;;4056829;29;20041;-73
2022/09/15 06:23:53;;;;;;;8.00;6.68;;;16.30;99.90;;;;;;4057198;29;20040;-73
2022/09/15 06:25:53;;;;;;;8.55;6.90;;;16.40;99.90;;;;;;4057044;29;20043;-71
2022/09/15 06:27:54;;;;;;;10.45;6.65;;;16.40;99.90;;;;;;4058172;28;20095;-75
2022/09/15 06:29:55;;;;;;;7.30;6.50;;;16.40;99.90;;;;;;4056508;29;20039;-74
2022/09/15 06:32:01;;;;;;;9.23;6.82;;;16.40;99.90;;;;;;4056772;29;20641;-73
2022/09/15 06:34:02;;;;;;;10.82;7.15;;;16.40;99.90;;;;;;4056478;29;20128;-75
2022/09/15 06:36:03;;;;;;;8.95;7.07;;;16.40;99.90;;;;;;4057277;29;20539;-74
2022/09/15 06:38:04;;;;;;;9.43;7.22;;;16.40;99.90;;;;;;4056850;28;20083;-74
2022/09/15 06:40:06;;;;;;;8.63;6.68;;;16.50;99.90;;;;;;4055799;29;20036;-74
2022/09/15 06:42:07;;;;;;;7.97;6.67;;;16.40;99.90;;;;;;4055221;29;20500;-75
2022/09/15 06:44:08;;;;;;;9.65;7.35;;;16.50;99.90;;;;;;4057415;29;20299;-74
2022/09/15 06:46:10;;;;;;;11.13;6.90;;;16.50;99.90;;;;;;4056730;29;20052;-74
2022/09/15 06:48:11;;;;;;;10.60;7.53;;;16.50;99.90;;;;;;4061724;29;20048;-73
2022/09/15 06:50:11;;;;;;;8.70;6.40;;;16.50;99.90;;;;;;4052374;29;20040;-71
2022/09/15 06:52:12;;;;;;;9.57;7.45;;;16.50;99.90;;;;;;4058242;29;20044;-76
2022/09/15 06:54:14;;;;;;;11.60;8.10;;;16.60;99.90;;;;;;4058804;29;20389;-75
2022/09/15 06:56:16;;;;;;;;;;;16.60;99.90;;;;;;4056948;29;20073;-73
2022/09/15 06:58:17;;;;;;;11.18;7.30;;;16.60;99.90;;;;;;4057713;29;20278;-74
2022/09/15 07:00:18;;;;;;;9.80;7.22;;;16.60;99.90;;;;;;4056227;29;20048;-74
2022/09/15 07:02:19;;;;;;;17.15;8.70;;;16.60;99.90;;;;;;4061047;28;20044;-76
2022/09/15 07:04:20;;;;;;;11.98;8.68;;;16.60;99.90;;;;;;4058374;28;20329;-74
2022/09/15 07:06:21;;;;;;;13.15;8.07;;;16.70;99.90;;;;;;4056377;29;20042;-74
2022/09/15 07:08:23;;;;;;;13.48;9.32;;;16.70;99.90;;;;;;4056205;28;20059;-73
2022/09/15 07:10:23;;;;;;;13.00;8.07;;;16.70;99.90;;;;;;4057230;28;20032;-74
2022/09/15 07:12:24;;;;;;;11.77;7.97;;;16.70;99.90;;;;;;4056590;28;20040;-73
2022/09/15 07:14:24;;;;;;;10.75;8.05;;;16.70;99.90;;;;;;4057163;28;20040;-73
2022/09/15 07:16:25;;;;;;;11.02;8.07;;;16.70;99.90;;;;;;4057574;29;20491;-75
2022/09/15 07:18:26;;;;;;;10.55;7.63;;;16.70;99.90;;;;;;4059336;28;20440;-75
2022/09/15 07:20:27;;;;;;;13.10;9.20;;;16.70;99.90;;;;;;4053406;28;20040;-75
2022/09/15 07:22:27;;;;;;;14.65;10.18;;;16.80;99.90;;;;;;4059407;28;20052;-76
2022/09/15 07:24:28;;;;;;;13.63;9.25;;;16.70;99.90;;;;;;4058350;28;20040;-75
2022/09/15 07:26:29;;;;;;;14.77;9.50;;;16.70;99.90;;;;;;4056561;29;20298;-75
2022/09/15 07:28:30;;;;;;;10.93;8.02;;;16.70;99.90;;;;;;4060321;28;20106;-75
2022/09/15 07:30:30;;;;;;;14.40;9.50;;;16.70;99.90;;;;;;4057988;28;20040;-74
2022/09/15 07:32:32;;;;;;;13.85;9.23;;;16.70;99.90;;;;;;4057673;28;20036;-76
2022/09/15 07:34:34;;;;;;;16.90;7.97;;;16.70;99.90;;;;;;4058648;29;20048;-75
2022/09/15 07:36:35;;;;;;;16.10;8.43;;;16.80;99.90;;;;;;4057290;29;20084;-75
2022/09/15 07:38:39;;;;;;;10.13;7.85;;;16.80;99.90;;;;;;4056752;29;20032;-73
2022/09/15 07:40:40;;;;;;;13.80;8.27;;;16.80;99.90;;;;;;4056262;28;20116;-76
2022/09/15 07:42:43;;;;;;;9.52;6.78;;;16.80;99.90;;;;;;4060060;29;20089;-75
2022/09/15 07:44:44;;;;;;;9.10;7.25;;;16.80;99.90;;;;;;4059734;29;20089;-73
2022/09/15 07:46:45;;;;;;;12.73;8.55;;;16.90;99.90;;;;;;4056339;29;20064;-75
2022/09/15 07:48:47;;;;;;;8.98;6.30;;;17.00;99.90;;;;;;4056899;29;20052;-76
2022/09/15 07:50:48;;;;;;;9.05;6.88;;;17.00;99.90;;;;;;4059325;28;20048;-75
2022/09/15 07:52:48;;;;;;;10.25;6.28;;;17.00;99.90;;;;;;4059098;29;20440;-75
2022/09/15 07:54:49;;;;;;;10.50;7.30;;;17.00;99.90;;;;;;4057878;28;20032;-75
2022/09/15 07:56:49;;;;;;;10.02;7.63;;;17.00;99.90;;;;;;4053679;29;20047;-73
2022/09/15 07:58:51;;;;;;;9.55;6.85;;;17.10;99.90;;;;;;4057873;28;20099;-74
2022/09/15 08:00:51;;;;;;;12.77;7.88;;;17.10;99.90;;;;;;4057916;28;20431;-73
2022/09/15 08:02:52;;;;;;;10.50;6.68;;;17.20;99.90;;;;;;4054834;29;20076;-74
2022/09/15 08:04:52;;;;;;;11.05;7.65;;;17.30;99.90;;;;;;4057261;29;20087;-75
2022/09/15 08:06:53;;;;;;;7.57;6.38;;;17.30;99.90;;;;;;4056465;28;20515;-72
2022/09/15 08:08:54;;;;;;;11.05;6.63;;;17.40;99.90;;;;;;4057475;28;20111;-75
2022/09/15 08:10:54;;;;;;;10.07;6.40;;;17.40;99.90;;;;;;4057507;28;20104;-75
2022/09/15 08:12:57;;;;;;;11.93;6.18;;;17.40;99.90;;;;;;4058005;28;20048;-72
2022/09/15 08:14:58;;;;;;;9.98;6.63;;;17.50;99.90;;;;;;4056151;29;20043;-75
2022/09/15 08:17:00;;;;;;;9.93;5.88;;;17.50;99.90;;;;;;4059548;28;20476;-74
2022/09/15 08:19:01;;;;;;;8.30;5.25;;;17.60;99.90;;;;;;4061569;29;20054;-75
2022/09/15 08:21:06;;;;;;;10.55;6.28;;;17.60;99.90;;;;;;4058309;28;20032;-74
2022/09/15 08:23:07;;;;;;;8.75;6.25;;;17.60;99.90;;;;;;4058912;28;20480;-75
2022/09/15 08:25:08;;;;;;;7.13;4.95;;;17.70;99.90;;;;;;4060578;29;20028;-76
2022/09/15 08:27:09;;;;;;;6.82;4.43;;;17.70;99.90;;;;;;4062605;29;20052;-76
2022/09/15 08:29:10;;;;;;;7.47;4.78;;;17.70;99.90;;;;;;4057314;28;20068;-76
2022/09/15 08:31:12;;;;;;;10.43;5.18;;;17.70;99.90;;;;;;4059080;29;20044;-76
2022/09/15 08:33:13;;;;;;;10.90;6.28;;;17.70;99.90;;;;;;4058698;28;20543;-74
2022/09/15 08:35:14;;;;;;;11.25;5.63;;;17.70;99.90;;;;;;4060870;29;20064;-76
2022/09/15 08:37:16;;;;;;;9.80;5.93;;;17.70;99.90;;;;;;4059170;28;20893;-76
2022/09/15 08:39:16;;;;;;;9.55;5.00;;;17.70;99.90;;;;;;4059390;28;20059;-75
2022/09/15 08:41:23;;;;;;;5.10;4.00;;;17.70;99.90;;;;;;4055550;28;20407;-75
2022/09/15 08:43:26;;;;;;;10.07;4.75;;;17.80;99.90;;;;;;4058532;29;20062;-76
2022/09/15 08:45:31;;;;;;;7.97;4.85;;;17.80;99.90;;;;;;4057109;29;20079;-75
2022/09/15 08:47:43;;;;;;;10.35;4.65;;;17.80;99.90;;;;;;4060658;29;20518;-75
2022/09/15 08:50:19;;;;;;;5.57;3.57;;;17.90;99.90;;;;;;4059613;28;20055;-73
2022/09/15 08:52:26;;;;;;;5.65;3.35;;;17.90;99.90;;;;;;4060805;28;20070;-73
2022/09/15 08:54:29;;;;;;;5.32;3.15;;;17.90;99.90;;;;;;4057259;28;20036;-75
2022/09/15 08:56:30;;;;;;;5.35;3.60;;;17.90;99.90;;;;;;4062475;29;20044;-74
2022/09/15 08:58:35;;;;;;;5.93;3.20;;;18.00;99.90;;;;;;4058662;29;20824;-74
2022/09/15 09:00:35;;;;;;;6.03;3.05;;;18.00;99.90;;;;;;4057911;28;20028;-74
2022/09/15 09:02:57;;;;;;;5.07;3.05;;;18.00;99.90;;;;;;4058410;29;20476;-74
2022/09/15 09:05:28;;;;;;;5.63;3.28;;;18.00;99.90;;;;;;4056408;28;20044;-74
2022/09/15 09:08:12;;;;;;;5.57;2.95;;;18.10;99.90;;;;;;4058216;28;20047;-73
2022/09/15 09:10:24;;;;;;;4.65;2.85;;;18.00;99.90;;;;;;4042566;29;20975;-74
2022/09/15 09:12:43;;;;;;;4.13;2.10;;;18.00;99.90;;;;;;4059002;29;20132;-74
2022/09/15 09:15:06;;;;;;;5.75;2.20;;;18.00;99.90;;;;;;4058983;29;20068;-75
2022/09/15 09:17:16;;;;;;;3.38;1.88;;;18.00;99.90;;;;;;4059166;29;20388;-75
2022/09/15 09:19:24;;;;;;;3.55;1.85;;;18.00;99.90;;;;;;4061459;29;20050;-73
2022/09/15 09:21:31;;;;;;;4.50;1.98;;;18.00;99.90;;;;;;4059420;28;20333;-73
2022/09/15 09:23:36;;;;;;;5.78;1.85;;;18.00;99.90;;;;;;4059877;29;20063;-73
2022/09/15 09:25:37;;;;;;;3.97;1.50;;;18.00;99.90;;;;;;4058072;29;20052;-76
2022/09/15 09:27:38;;;;;;;5.18;1.67;;;18.00;99.90;;;;;;4058509;29;20484;-75
2022/09/15 09:29:43;;;;;;;5.22;2.20;;;18.10;99.90;;;;;;4060938;28;20403;-75
2022/09/15 09:31:49;;;;;;;8.32;2.80;;;18.00;99.90;;;;;;4059066;28;20083;-74
2022/09/15 09:33:57;;;;;;;4.15;1.95;;;18.10;99.90;;;;;;4057608;28;20071;-75
2022/09/15 09:36:00;;;;;;;5.47;1.88;;;18.10;99.90;;;;;;4056313;29;20052;-74
2022/09/15 09:38:01;;;;;;;5.35;2.40;;;18.20;99.90;;;;;;4056911;29;20029;-71
2022/09/15 09:40:02;;;;;;;4.47;2.35;;;18.30;99.90;;;;;;4060114;29;20032;-73
2022/09/15 09:42:04;;;;;;;5.55;2.13;;;18.30;99.90;;;;;;4060432;28;20038;-74
2022/09/15 09:44:08;;;;;;;;;;;18.20;99.90;;;;;;4059460;28;20056;-74
2022/09/15 09:46:15;;;;;;;3.83;2.03;;;18.30;99.90;;;;;;4057541;28;19924;-74
2022/09/15 09:48:21;;;;;;;5.57;2.65;;;18.30;99.90;;;;;;4058530;29;20087;-75
2022/09/15 09:50:42;;;;;;;4.10;2.15;;;18.30;99.90;;;;;;4060835;28;20037;-73
2022/09/15 09:52:42;;;;;;;4.45;2.38;;;18.40;99.90;;;;;;4055112;29;20036;-74
2022/09/15 09:54:43;;;;;;;6.53;3.05;;;18.40;99.90;;;;;;4059373;28;20613;-75
2022/09/15 09:56:44;;;;;;;5.63;2.67;;;18.40;99.90;;;;;;4057741;29;20035;-74
2022/09/15 09:58:45;;;;;;;3.50;2.10;;;18.50;99.90;;;;;;4058424;29;20068;-73
2022/09/15 10:00:46;;;;;;;7.68;2.80;;;18.40;99.90;;;;;;4056353;28;20040;-72
2022/09/15 10:02:46;;;;;;;7.43;2.55;;;18.40;99.90;;;;;;4061116;29;20415;-74
2022/09/15 10:04:50;;;;;;;5.25;2.35;;;18.40;99.90;;;;;;4060675;28;20143;-74
2022/09/15 10:06:54;;;;;;;8.52;3.05;;;18.30;99.90;;;;;;4055117;29;20096;-74
2022/09/15 10:09:04;;;;;;;8.68;2.40;;;18.30;99.90;;;;;;4060711;29;20099;-74
2022/09/15 10:11:07;;;;;;;3.60;1.92;;;18.30;99.90;;;;;;4054083;28;20047;-75
2022/09/15 10:13:10;;;;;;;6.88;2.75;;;18.40;99.90;;;;;;4059566;29;20028;-73
2022/09/15 10:15:41;;;;;;;7.03;2.92;;;18.40;99.90;;;;;;4060619;29;20028;-74
2022/09/15 10:17:44;;;;;;;8.13;2.97;;;18.30;99.90;;;;;;4054221;28;20538;-73
2022/09/15 10:19:53;;;;;;;;;;;18.40;99.90;;;;;;4060997;29;20063;-73
2022/09/15 10:21:54;;;;;;;5.75;2.70;;;18.40;99.90;;;;;;4060299;28;19930;-75
2022/09/15 10:23:54;;;;;;;6.70;2.60;;;18.40;99.90;;;;;;4058249;29;20523;-76
2022/09/15 10:26:16;;;;;;;6.68;2.40;;;18.50;99.90;;;;;;4056234;29;20085;-76
2022/09/15 10:28:18;;;;;;;4.70;2.58;;;18.50;99.90;;;;;;4057421;28;20040;-75
2022/09/15 10:30:19;;;;;;;4.28;2.05;;;18.60;99.90;;;;;;4057158;29;20400;-74
2022/09/15 10:32:24;;;;;;;4.40;2.17;;;18.70;99.90;;;;;;4060656;29;20036;-74
2022/09/15 10:34:26;;;;;;;5.60;2.47;;;18.70;99.90;;;;;;4059595;28;20050;-75
2022/09/15 10:36:30;;;;;;;3.70;2.47;;;18.70;99.90;;;;;;4055747;29;20047;-72
2022/09/15 10:39:07;;;;;;;9.00;2.13;;;18.70;99.90;;;;;;4057465;29;20042;-74
2022/09/15 10:41:24;;;;;;;4.22;2.45;;;18.70;99.90;;;;;;4055996;28;20046;-75
2022/09/15 10:44:01;;;;;;;5.68;2.13;;;18.60;99.90;;;;;;4057985;28;20056;-74